sensor_id;sensor_type;location;lat;lon;timestamp;P1;durP1;ratioP1;P2;durP2;ratioP2
57395;SDS011;43222;52.912;6.940;2023-08-30T00:02:01;15.52;;;13.85;;
57395;SDS011;43222;52.912;6.940;2023-08-30T00:04:27;15.65;;;14.05;;
57395;SDS011;43222;52.912;6.940;2023-08-30T00:06:53;16.60;;;14.85;;
57395;SDS011;43222;52.912;6.940;2023-08-30T00:09:19;16.60;;;14.90;;
57395;SDS011;43222;52.912;6.940;2023-08-30T00:11:45;16.85;;;15.15;;
57395;SDS011;43222;52.912;6.940;2023-08-30T00:14:12;17.15;;;15.02;;
57395;SDS011;43222;52.912;6.940;2023-08-30T00:16:38;18.02;;;16.20;;
57395;SDS011;43222;52.912;6.940;2023-08-30T00:19:04;16.90;;;15.30;;
57395;SDS011;43222;52.912;6.940;2023-08-30T00:21:30;18.30;;;16.38;;
57395;SDS011;43222;52.912;6.940;2023-08-30T00:23:56;17.40;;;15.80;;
57395;SDS011;43222;52.912;6.940;2023-08-30T00:26:22;18.35;;;16.55;;
57395;SDS011;43222;52.912;6.940;2023-08-30T00:28:49;15.93;;;14.43;;
57395;SDS011;43222;52.912;6.940;2023-08-30T00:31:15;17.85;;;15.70;;
57395;SDS011;43222;52.912;6.940;2023-08-30T00:33:41;19.42;;;17.42;;
57395;SDS011;43222;52.912;6.940;2023-08-30T00:36:07;17.98;;;16.17;;
57395;SDS011;43222;52.912;6.940;2023-08-30T00:38:33;17.67;;;15.63;;
57395;SDS011;43222;52.912;6.940;2023-08-30T00:40:59;19.42;;;17.45;;
57395;SDS011;43222;52.912;6.940;2023-08-30T00:43:25;15.77;;;14.18;;
57395;SDS011;43222;52.912;6.940;2023-08-30T00:45:51;19.73;;;17.75;;
57395;SDS011;43222;52.912;6.940;2023-08-30T00:48:18;17.55;;;15.27;;
57395;SDS011;43222;52.912;6.940;2023-08-30T00:50:45;18.60;;;16.65;;
57395;SDS011;43222;52.912;6.940;2023-08-30T00:53:11;17.80;;;16.00;;
57395;SDS011;43222;52.912;6.940;2023-08-30T00:55:38;17.38;;;15.68;;
57395;SDS011;43222;52.912;6.940;2023-08-30T00:58:05;16.25;;;14.65;;
57395;SDS011;43222;52.912;6.940;2023-08-30T01:00:31;17.83;;;16.02;;
57395;SDS011;43222;52.912;6.940;2023-08-30T01:02:58;17.92;;;16.17;;
57395;SDS011;43222;52.912;6.940;2023-08-30T01:05:25;18.10;;;16.50;;
57395;SDS011;43222;52.912;6.940;2023-08-30T01:07:51;20.50;;;18.60;;
57395;SDS011;43222;52.912;6.940;2023-08-30T01:10:18;19.13;;;17.33;;
57395;SDS011;43222;52.912;6.940;2023-08-30T01:12:48;18.17;;;16.55;;
57395;SDS011;43222;52.912;6.940;2023-08-30T01:15:15;18.40;;;16.55;;
57395;SDS011;43222;52.912;6.940;2023-08-30T01:17:44;18.30;;;16.25;;
57395;SDS011;43222;52.912;6.940;2023-08-30T01:20:10;18.35;;;16.55;;
57395;SDS011;43222;52.912;6.940;2023-08-30T01:22:59;18.95;;;16.95;;
57395;SDS011;43222;52.912;6.940;2023-08-30T01:27:52;16.65;;;15.02;;
57395;SDS011;43222;52.912;6.940;2023-08-30T01:30:19;18.42;;;15.52;;
57395;SDS011;43222;52.912;6.940;2023-08-30T01:32:46;17.35;;;15.70;;
57395;SDS011;43222;52.912;6.940;2023-08-30T01:35:12;15.63;;;14.07;;
57395;SDS011;43222;52.912;6.940;2023-08-30T01:37:47;14.27;;;12.88;;
57395;SDS011;43222;52.912;6.940;2023-08-30T01:40:14;15.15;;;13.25;;
57395;SDS011;43222;52.912;6.940;2023-08-30T01:42:42;16.77;;;15.10;;
57395;SDS011;43222;52.912;6.940;2023-08-30T01:45:09;16.65;;;14.98;;
57395;SDS011;43222;52.912;6.940;2023-08-30T01:47:38;17.50;;;15.80;;
57395;SDS011;43222;52.912;6.940;2023-08-30T01:50:05;16.48;;;14.77;;
57395;SDS011;43222;52.912;6.940;2023-08-30T01:52:32;16.20;;;14.68;;
57395;SDS011;43222;52.912;6.940;2023-08-30T01:55:02;15.00;;;13.50;;
57395;SDS011;43222;52.912;6.940;2023-08-30T01:57:28;16.10;;;13.55;;
57395;SDS011;43222;52.912;6.940;2023-08-30T01:59:54;13.63;;;12.07;;
57395;SDS011;43222;52.912;6.940;2023-08-30T02:02:20;14.30;;;12.90;;
57395;SDS011;43222;52.912;6.940;2023-08-30T02:04:46;15.25;;;13.68;;
57395;SDS011;43222;52.912;6.940;2023-08-30T02:07:20;15.85;;;13.02;;
57395;SDS011;43222;52.912;6.940;2023-08-30T02:09:57;16.17;;;13.68;;
57395;SDS011;43222;52.912;6.940;2023-08-30T02:12:24;14.52;;;12.75;;
57395;SDS011;43222;52.912;6.940;2023-08-30T02:14:54;13.77;;;12.35;;
57395;SDS011;43222;52.912;6.940;2023-08-30T02:17:20;15.93;;;14.32;;
57395;SDS011;43222;52.912;6.940;2023-08-30T02:19:47;14.30;;;12.93;;
57395;SDS011;43222;52.912;6.940;2023-08-30T02:22:18;15.23;;;13.10;;
57395;SDS011;43222;52.912;6.940;2023-08-30T02:24:44;15.13;;;12.95;;
57395;SDS011;43222;52.912;6.940;2023-08-30T02:27:10;15.18;;;12.68;;
57395;SDS011;43222;52.912;6.940;2023-08-30T02:29:36;14.68;;;12.95;;
57395;SDS011;43222;52.912;6.940;2023-08-30T02:32:02;14.95;;;13.35;;
57395;SDS011;43222;52.912;6.940;2023-08-30T02:34:29;16.00;;;13.85;;
57395;SDS011;43222;52.912;6.940;2023-08-30T02:36:55;15.48;;;13.88;;
57395;SDS011;43222;52.912;6.940;2023-08-30T02:39:21;14.90;;;12.73;;
57395;SDS011;43222;52.912;6.940;2023-08-30T02:41:47;17.67;;;13.20;;
57395;SDS011;43222;52.912;6.940;2023-08-30T02:44:13;15.77;;;13.30;;
57395;SDS011;43222;52.912;6.940;2023-08-30T02:46:39;14.82;;;13.30;;
57395;SDS011;43222;52.912;6.940;2023-08-30T02:49:06;15.52;;;12.85;;
57395;SDS011;43222;52.912;6.940;2023-08-30T02:51:34;14.63;;;13.00;;
57395;SDS011;43222;52.912;6.940;2023-08-30T02:54:00;13.60;;;12.20;;
57395;SDS011;43222;52.912;6.940;2023-08-30T02:56:26;14.82;;;13.07;;
57395;SDS011;43222;52.912;6.940;2023-08-30T02:58:52;13.35;;;11.95;;
57395;SDS011;43222;52.912;6.940;2023-08-30T03:01:18;13.85;;;12.18;;
57395;SDS011;43222;52.912;6.940;2023-08-30T03:03:47;13.18;;;11.77;;
57395;SDS011;43222;52.912;6.940;2023-08-30T03:06:13;12.68;;;11.38;;
57395;SDS011;43222;52.912;6.940;2023-08-30T03:08:40;13.60;;;11.85;;
57395;SDS011;43222;52.912;6.940;2023-08-30T03:11:09;12.77;;;11.43;;
57395;SDS011;43222;52.912;6.940;2023-08-30T03:13:36;13.07;;;11.48;;
57395;SDS011;43222;52.912;6.940;2023-08-30T03:16:14;15.45;;;13.15;;
57395;SDS011;43222;52.912;6.940;2023-08-30T03:18:41;15.02;;;13.35;;
57395;SDS011;43222;52.912;6.940;2023-08-30T03:21:08;14.88;;;12.93;;
57395;SDS011;43222;52.912;6.940;2023-08-30T03:23:34;15.63;;;12.60;;
57395;SDS011;43222;52.912;6.940;2023-08-30T03:26:12;16.83;;;13.82;;
57395;SDS011;43222;52.912;6.940;2023-08-30T03:28:39;13.40;;;12.02;;
57395;SDS011;43222;52.912;6.940;2023-08-30T03:33:38;14.30;;;12.68;;
57395;SDS011;43222;52.912;6.940;2023-08-30T03:36:06;13.23;;;11.75;;
57395;SDS011;43222;52.912;6.940;2023-08-30T03:38:33;16.17;;;13.38;;
57395;SDS011;43222;52.912;6.940;2023-08-30T03:40:59;15.18;;;13.48;;
57395;SDS011;43222;52.912;6.940;2023-08-30T03:43:25;14.13;;;11.95;;
57395;SDS011;43222;52.912;6.940;2023-08-30T03:45:51;15.20;;;12.93;;
57395;SDS011;43222;52.912;6.940;2023-08-30T03:48:17;14.95;;;13.40;;
57395;SDS011;43222;52.912;6.940;2023-08-30T03:50:43;15.93;;;12.75;;
57395;SDS011;43222;52.912;6.940;2023-08-30T03:53:09;15.73;;;14.02;;
57395;SDS011;43222;52.912;6.940;2023-08-30T03:55:35;15.43;;;13.80;;
57395;SDS011;43222;52.912;6.940;2023-08-30T03:58:01;15.40;;;13.57;;
57395;SDS011;43222;52.912;6.940;2023-08-30T04:00:28;15.25;;;13.65;;
57395;SDS011;43222;52.912;6.940;2023-08-30T04:02:54;15.32;;;13.73;;
57395;SDS011;43222;52.912;6.940;2023-08-30T04:05:20;14.98;;;13.40;;
57395;SDS011;43222;52.912;6.940;2023-08-30T04:07:46;18.10;;;14.77;;
57395;SDS011;43222;52.912;6.940;2023-08-30T04:10:12;16.13;;;14.38;;
57395;SDS011;43222;52.912;6.940;2023-08-30T04:12:38;15.75;;;14.05;;
57395;SDS011;43222;52.912;6.940;2023-08-30T04:15:05;17.40;;;14.65;;
57395;SDS011;43222;52.912;6.940;2023-08-30T04:17:31;16.80;;;14.93;;
57395;SDS011;43222;52.912;6.940;2023-08-30T04:19:57;18.00;;;15.18;;
57395;SDS011;43222;52.912;6.940;2023-08-30T04:22:23;16.92;;;15.15;;
57395;SDS011;43222;52.912;6.940;2023-08-30T04:24:49;16.23;;;14.50;;
57395;SDS011;43222;52.912;6.940;2023-08-30T04:27:15;16.85;;;14.95;;
57395;SDS011;43222;52.912;6.940;2023-08-30T04:29:41;17.67;;;15.85;;
57395;SDS011;43222;52.912;6.940;2023-08-30T04:32:10;17.50;;;15.70;;
57395;SDS011;43222;52.912;6.940;2023-08-30T04:34:36;17.13;;;14.25;;
57395;SDS011;43222;52.912;6.940;2023-08-30T04:37:02;17.83;;;15.73;;
57395;SDS011;43222;52.912;6.940;2023-08-30T04:39:29;17.58;;;15.13;;
57395;SDS011;43222;52.912;6.940;2023-08-30T04:41:55;18.85;;;16.23;;
57395;SDS011;43222;52.912;6.940;2023-08-30T04:44:21;19.00;;;15.35;;
57395;SDS011;43222;52.912;6.940;2023-08-30T04:46:49;18.80;;;15.75;;
57395;SDS011;43222;52.912;6.940;2023-08-30T04:49:17;18.50;;;15.70;;
57395;SDS011;43222;52.912;6.940;2023-08-30T04:51:43;17.60;;;15.65;;
57395;SDS011;43222;52.912;6.940;2023-08-30T04:54:09;17.73;;;15.60;;
57395;SDS011;43222;52.912;6.940;2023-08-30T04:56:35;18.85;;;16.73;;
57395;SDS011;43222;52.912;6.940;2023-08-30T04:59:01;19.23;;;16.40;;
57395;SDS011;43222;52.912;6.940;2023-08-30T05:01:29;19.75;;;17.73;;
57395;SDS011;43222;52.912;6.940;2023-08-30T05:03:55;20.00;;;17.23;;
57395;SDS011;43222;52.912;6.940;2023-08-30T05:06:21;18.40;;;16.42;;
57395;SDS011;43222;52.912;6.940;2023-08-30T05:08:47;20.90;;;16.80;;
57395;SDS011;43222;52.912;6.940;2023-08-30T05:11:13;17.45;;;15.52;;
57395;SDS011;43222;52.912;6.940;2023-08-30T05:13:41;18.25;;;16.25;;
57395;SDS011;43222;52.912;6.940;2023-08-30T05:16:07;19.83;;;17.17;;
57395;SDS011;43222;52.912;6.940;2023-08-30T05:18:33;18.60;;;16.60;;
57395;SDS011;43222;52.912;6.940;2023-08-30T05:20:59;19.77;;;16.02;;
57395;SDS011;43222;52.912;6.940;2023-08-30T05:23:28;18.52;;;16.40;;
57395;SDS011;43222;52.912;6.940;2023-08-30T05:25:54;17.75;;;15.75;;
57395;SDS011;43222;52.912;6.940;2023-08-30T05:28:20;19.88;;;16.33;;
57395;SDS011;43222;52.912;6.940;2023-08-30T05:30:46;17.55;;;15.60;;
57395;SDS011;43222;52.912;6.940;2023-08-30T05:33:12;18.55;;;16.58;;
57395;SDS011;43222;52.912;6.940;2023-08-30T05:35:38;17.38;;;14.82;;
57395;SDS011;43222;52.912;6.940;2023-08-30T05:38:05;17.42;;;15.45;;
57395;SDS011;43222;52.912;6.940;2023-08-30T05:40:31;17.88;;;15.65;;
57395;SDS011;43222;52.912;6.940;2023-08-30T05:42:57;17.30;;;15.50;;
57395;SDS011;43222;52.912;6.940;2023-08-30T05:45:23;19.40;;;14.38;;
57395;SDS011;43222;52.912;6.940;2023-08-30T05:47:49;17.90;;;15.48;;
57395;SDS011;43222;52.912;6.940;2023-08-30T05:50:15;17.60;;;14.95;;
57395;SDS011;43222;52.912;6.940;2023-08-30T05:52:41;17.75;;;15.70;;
57395;SDS011;43222;52.912;6.940;2023-08-30T05:55:09;16.77;;;14.00;;
57395;SDS011;43222;52.912;6.940;2023-08-30T05:57:36;16.52;;;14.13;;
57395;SDS011;43222;52.912;6.940;2023-08-30T06:00:02;17.25;;;14.27;;
57395;SDS011;43222;52.912;6.940;2023-08-30T06:02:30;16.17;;;12.65;;
57395;SDS011;43222;52.912;6.940;2023-08-30T06:04:56;17.23;;;12.68;;
57395;SDS011;43222;52.912;6.940;2023-08-30T06:07:22;13.52;;;11.82;;
57395;SDS011;43222;52.912;6.940;2023-08-30T06:09:48;13.00;;;11.25;;
57395;SDS011;43222;52.912;6.940;2023-08-30T06:12:14;16.05;;;13.10;;
57395;SDS011;43222;52.912;6.940;2023-08-30T06:14:40;18.92;;;11.57;;
57395;SDS011;43222;52.912;6.940;2023-08-30T06:17:06;17.00;;;13.02;;
57395;SDS011;43222;52.912;6.940;2023-08-30T06:19:32;16.33;;;14.57;;
57395;SDS011;43222;52.912;6.940;2023-08-30T06:21:58;13.75;;;11.25;;
57395;SDS011;43222;52.912;6.940;2023-08-30T06:24:25;15.80;;;13.38;;
57395;SDS011;43222;52.912;6.940;2023-08-30T06:26:51;17.58;;;13.82;;
57395;SDS011;43222;52.912;6.940;2023-08-30T06:29:18;15.52;;;13.18;;
57395;SDS011;43222;52.912;6.940;2023-08-30T06:31:44;15.07;;;13.48;;
57395;SDS011;43222;52.912;6.940;2023-08-30T06:34:11;15.43;;;12.63;;
57395;SDS011;43222;52.912;6.940;2023-08-30T06:36:37;14.52;;;11.00;;
57395;SDS011;43222;52.912;6.940;2023-08-30T06:39:03;14.30;;;12.57;;
57395;SDS011;43222;52.912;6.940;2023-08-30T06:41:29;14.38;;;12.63;;
57395;SDS011;43222;52.912;6.940;2023-08-30T06:43:55;14.45;;;11.70;;
57395;SDS011;43222;52.912;6.940;2023-08-30T06:46:22;13.40;;;11.13;;
57395;SDS011;43222;52.912;6.940;2023-08-30T06:48:48;15.02;;;12.55;;
57395;SDS011;43222;52.912;6.940;2023-08-30T06:51:14;15.43;;;12.65;;
57395;SDS011;43222;52.912;6.940;2023-08-30T06:53:40;14.43;;;11.35;;
57395;SDS011;43222;52.912;6.940;2023-08-30T06:56:06;16.85;;;13.13;;
57395;SDS011;43222;52.912;6.940;2023-08-30T06:58:32;15.63;;;12.70;;
57395;SDS011;43222;52.912;6.940;2023-08-30T07:00:58;14.45;;;12.82;;
57395;SDS011;43222;52.912;6.940;2023-08-30T07:03:24;17.40;;;12.07;;
57395;SDS011;43222;52.912;6.940;2023-08-30T07:05:51;15.13;;;12.93;;
57395;SDS011;43222;52.912;6.940;2023-08-30T07:08:17;17.05;;;13.27;;
57395;SDS011;43222;52.912;6.940;2023-08-30T07:10:43;15.73;;;13.82;;
57395;SDS011;43222;52.912;6.940;2023-08-30T07:13:09;16.77;;;13.07;;
57395;SDS011;43222;52.912;6.940;2023-08-30T07:15:37;17.70;;;13.40;;
57395;SDS011;43222;52.912;6.940;2023-08-30T07:18:04;18.27;;;13.13;;
57395;SDS011;43222;52.912;6.940;2023-08-30T07:20:31;16.10;;;13.15;;
57395;SDS011;43222;52.912;6.940;2023-08-30T07:22:57;16.27;;;13.15;;
57395;SDS011;43222;52.912;6.940;2023-08-30T07:25:23;16.45;;;13.15;;
57395;SDS011;43222;52.912;6.940;2023-08-30T07:27:49;15.85;;;14.02;;
57395;SDS011;43222;52.912;6.940;2023-08-30T07:30:16;16.27;;;13.13;;
57395;SDS011;43222;52.912;6.940;2023-08-30T07:32:42;17.65;;;13.20;;
57395;SDS011;43222;52.912;6.940;2023-08-30T07:35:08;16.65;;;13.68;;
57395;SDS011;43222;52.912;6.940;2023-08-30T07:37:34;17.60;;;13.57;;
57395;SDS011;43222;52.912;6.940;2023-08-30T07:40:01;15.57;;;12.57;;
57395;SDS011;43222;52.912;6.940;2023-08-30T07:42:29;15.07;;;11.98;;
57395;SDS011;43222;52.912;6.940;2023-08-30T07:44:55;15.65;;;12.77;;
57395;SDS011;43222;52.912;6.940;2023-08-30T07:47:21;15.43;;;12.27;;
57395;SDS011;43222;52.912;6.940;2023-08-30T07:49:48;16.92;;;12.30;;
57395;SDS011;43222;52.912;6.940;2023-08-30T07:52:14;16.65;;;13.52;;
57395;SDS011;43222;52.912;6.940;2023-08-30T07:54:40;15.25;;;12.00;;
57395;SDS011;43222;52.912;6.940;2023-08-30T07:57:06;15.98;;;12.52;;
57395;SDS011;43222;52.912;6.940;2023-08-30T07:59:35;15.73;;;12.43;;
57395;SDS011;43222;52.912;6.940;2023-08-30T08:02:01;13.85;;;11.32;;
57395;SDS011;43222;52.912;6.940;2023-08-30T08:04:28;14.23;;;11.70;;
57395;SDS011;43222;52.912;6.940;2023-08-30T08:06:54;15.82;;;11.95;;
57395;SDS011;43222;52.912;6.940;2023-08-30T08:09:20;15.52;;;10.88;;
57395;SDS011;43222;52.912;6.940;2023-08-30T08:11:47;15.80;;;12.32;;
57395;SDS011;43222;52.912;6.940;2023-08-30T08:14:14;15.88;;;11.50;;
57395;SDS011;43222;52.912;6.940;2023-08-30T08:16:40;13.65;;;11.70;;
57395;SDS011;43222;52.912;6.940;2023-08-30T08:19:06;17.05;;;12.07;;
57395;SDS011;43222;52.912;6.940;2023-08-30T08:21:35;13.93;;;10.90;;
57395;SDS011;43222;52.912;6.940;2023-08-30T08:24:01;13.65;;;11.45;;
57395;SDS011;43222;52.912;6.940;2023-08-30T08:26:27;15.60;;;11.93;;
57395;SDS011;43222;52.912;6.940;2023-08-30T08:28:54;16.50;;;12.85;;
57395;SDS011;43222;52.912;6.940;2023-08-30T08:31:20;14.82;;;12.68;;
57395;SDS011;43222;52.912;6.940;2023-08-30T08:33:49;15.68;;;12.30;;
57395;SDS011;43222;52.912;6.940;2023-08-30T08:36:16;15.77;;;12.52;;
57395;SDS011;43222;52.912;6.940;2023-08-30T08:38:42;13.60;;;11.63;;
57395;SDS011;43222;52.912;6.940;2023-08-30T08:41:08;15.00;;;12.50;;
57395;SDS011;43222;52.912;6.940;2023-08-30T08:43:40;16.27;;;12.00;;
57395;SDS011;43222;52.912;6.940;2023-08-30T08:46:07;14.60;;;11.80;;
57395;SDS011;43222;52.912;6.940;2023-08-30T08:48:37;16.35;;;12.38;;
57395;SDS011;43222;52.912;6.940;2023-08-30T08:51:05;16.75;;;12.10;;
57395;SDS011;43222;52.912;6.940;2023-08-30T08:53:32;14.85;;;11.70;;
57395;SDS011;43222;52.912;6.940;2023-08-30T08:55:58;16.15;;;10.95;;
57395;SDS011;43222;52.912;6.940;2023-08-30T08:58:25;14.00;;;10.77;;
57395;SDS011;43222;52.912;6.940;2023-08-30T09:00:51;15.55;;;11.45;;
57395;SDS011;43222;52.912;6.940;2023-08-30T09:03:18;14.50;;;11.05;;
57395;SDS011;43222;52.912;6.940;2023-08-30T09:05:44;15.35;;;11.18;;
57395;SDS011;43222;52.912;6.940;2023-08-30T09:08:11;15.02;;;11.10;;
57395;SDS011;43222;52.912;6.940;2023-08-30T09:10:40;13.98;;;9.60;;
57395;SDS011;43222;52.912;6.940;2023-08-30T09:13:06;14.43;;;10.82;;
57395;SDS011;43222;52.912;6.940;2023-08-30T09:15:33;13.38;;;10.77;;
57395;SDS011;43222;52.912;6.940;2023-08-30T09:17:59;14.15;;;9.65;;
57395;SDS011;43222;52.912;6.940;2023-08-30T09:20:26;12.98;;;9.68;;
57395;SDS011;43222;52.912;6.940;2023-08-30T09:22:52;13.13;;;9.80;;
57395;SDS011;43222;52.912;6.940;2023-08-30T09:25:24;15.68;;;10.85;;
57395;SDS011;43222;52.912;6.940;2023-08-30T09:27:51;15.10;;;10.65;;
57395;SDS011;43222;52.912;6.940;2023-08-30T09:30:23;14.38;;;10.38;;
57395;SDS011;43222;52.912;6.940;2023-08-30T09:32:49;13.35;;;10.13;;
57395;SDS011;43222;52.912;6.940;2023-08-30T09:35:15;12.75;;;9.73;;
57395;SDS011;43222;52.912;6.940;2023-08-30T09:37:43;12.95;;;10.55;;
57395;SDS011;43222;52.912;6.940;2023-08-30T09:40:10;15.20;;;10.18;;
57395;SDS011;43222;52.912;6.940;2023-08-30T09:42:40;15.40;;;11.93;;
57395;SDS011;43222;52.912;6.940;2023-08-30T09:45:17;15.00;;;10.90;;
57395;SDS011;43222;52.912;6.940;2023-08-30T09:47:46;15.55;;;10.65;;
57395;SDS011;43222;52.912;6.940;2023-08-30T09:50:12;15.57;;;11.55;;
57395;SDS011;43222;52.912;6.940;2023-08-30T09:52:39;14.23;;;11.35;;
57395;SDS011;43222;52.912;6.940;2023-08-30T09:55:06;13.32;;;11.50;;
57395;SDS011;43222;52.912;6.940;2023-08-30T09:57:32;17.23;;;11.52;;
57395;SDS011;43222;52.912;6.940;2023-08-30T09:59:58;17.85;;;11.43;;
57395;SDS011;43222;52.912;6.940;2023-08-30T10:02:25;15.95;;;11.82;;
57395;SDS011;43222;52.912;6.940;2023-08-30T10:04:51;16.13;;;11.15;;
57395;SDS011;43222;52.912;6.940;2023-08-30T10:07:18;17.05;;;12.88;;
57395;SDS011;43222;52.912;6.940;2023-08-30T10:09:44;18.88;;;12.63;;
57395;SDS011;43222;52.912;6.940;2023-08-30T10:12:11;14.70;;;12.68;;
57395;SDS011;43222;52.912;6.940;2023-08-30T10:14:37;17.83;;;12.23;;
57395;SDS011;43222;52.912;6.940;2023-08-30T10:17:04;16.25;;;13.40;;
57395;SDS011;43222;52.912;6.940;2023-08-30T10:19:33;19.10;;;13.20;;
57395;SDS011;43222;52.912;6.940;2023-08-30T10:22:00;18.45;;;13.65;;
57395;SDS011;43222;52.912;6.940;2023-08-30T10:24:40;16.38;;;14.45;;
57395;SDS011;43222;52.912;6.940;2023-08-30T10:27:08;16.30;;;13.70;;
57395;SDS011;43222;52.912;6.940;2023-08-30T10:29:35;15.93;;;12.57;;
57395;SDS011;43222;52.912;6.940;2023-08-30T10:32:05;16.35;;;13.85;;
57395;SDS011;43222;52.912;6.940;2023-08-30T10:34:32;17.10;;;13.73;;
57395;SDS011;43222;52.912;6.940;2023-08-30T10:36:59;14.75;;;12.68;;
57395;SDS011;43222;52.912;6.940;2023-08-30T10:39:36;15.82;;;12.38;;
57395;SDS011;43222;52.912;6.940;2023-08-30T10:42:12;15.23;;;12.88;;
57395;SDS011;43222;52.912;6.940;2023-08-30T10:44:57;14.82;;;11.95;;
57395;SDS011;43222;52.912;6.940;2023-08-30T10:47:27;14.32;;;12.52;;
57395;SDS011;43222;52.912;6.940;2023-08-30T10:49:57;12.32;;;10.55;;
57395;SDS011;43222;52.912;6.940;2023-08-30T10:52:24;11.32;;;9.35;;
57395;SDS011;43222;52.912;6.940;2023-08-30T10:54:50;11.88;;;9.93;;
57395;SDS011;43222;52.912;6.940;2023-08-30T10:57:24;10.60;;;9.05;;
57395;SDS011;43222;52.912;6.940;2023-08-30T11:00:11;12.73;;;10.05;;
57395;SDS011;43222;52.912;6.940;2023-08-30T11:02:59;11.70;;;7.82;;
57395;SDS011;43222;52.912;6.940;2023-08-30T11:05:26;9.57;;;7.40;;
57395;SDS011;43222;52.912;6.940;2023-08-30T11:07:53;9.77;;;6.65;;
57395;SDS011;43222;52.912;6.940;2023-08-30T11:10:19;10.18;;;7.03;;
57395;SDS011;43222;52.912;6.940;2023-08-30T11:12:46;10.23;;;7.13;;
57395;SDS011;43222;52.912;6.940;2023-08-30T11:15:14;11.82;;;7.95;;
57395;SDS011;43222;52.912;6.940;2023-08-30T11:17:41;10.63;;;7.50;;
57395;SDS011;43222;52.912;6.940;2023-08-30T11:20:07;10.35;;;7.85;;
57395;SDS011;43222;52.912;6.940;2023-08-30T11:22:37;9.90;;;7.68;;
57395;SDS011;43222;52.912;6.940;2023-08-30T11:25:04;10.60;;;7.97;;
57395;SDS011;43222;52.912;6.940;2023-08-30T11:27:30;10.02;;;7.85;;
57395;SDS011;43222;52.912;6.940;2023-08-30T11:29:59;10.88;;;8.23;;
57395;SDS011;43222;52.912;6.940;2023-08-30T11:32:37;10.82;;;8.63;;
57395;SDS011;43222;52.912;6.940;2023-08-30T11:35:04;10.35;;;8.80;;
57395;SDS011;43222;52.912;6.940;2023-08-30T11:37:30;11.68;;;9.63;;
57395;SDS011;43222;52.912;6.940;2023-08-30T11:39:56;12.02;;;9.85;;
57395;SDS011;43222;52.912;6.940;2023-08-30T11:42:23;13.15;;;10.25;;
57395;SDS011;43222;52.912;6.940;2023-08-30T11:44:49;13.18;;;10.15;;
57395;SDS011;43222;52.912;6.940;2023-08-30T11:47:19;13.95;;;11.00;;
57395;SDS011;43222;52.912;6.940;2023-08-30T11:49:47;13.15;;;10.35;;
57395;SDS011;43222;52.912;6.940;2023-08-30T11:52:14;13.38;;;10.40;;
57395;SDS011;43222;52.912;6.940;2023-08-30T11:54:40;12.15;;;10.13;;
57395;SDS011;43222;52.912;6.940;2023-08-30T11:57:07;12.48;;;10.70;;
57395;SDS011;43222;52.912;6.940;2023-08-30T11:59:37;12.25;;;10.90;;
57395;SDS011;43222;52.912;6.940;2023-08-30T12:02:03;11.98;;;10.77;;
57395;SDS011;43222;52.912;6.940;2023-08-30T12:04:30;13.52;;;11.05;;
57395;SDS011;43222;52.912;6.940;2023-08-30T12:06:56;13.30;;;11.73;;
57395;SDS011;43222;52.912;6.940;2023-08-30T12:09:29;12.30;;;10.43;;
57395;SDS011;43222;52.912;6.940;2023-08-30T12:12:04;13.57;;;11.60;;
57395;SDS011;43222;52.912;6.940;2023-08-30T12:14:34;15.00;;;12.32;;
57395;SDS011;43222;52.912;6.940;2023-08-30T12:17:00;13.77;;;12.30;;
57395;SDS011;43222;52.912;6.940;2023-08-30T12:19:27;15.35;;;12.95;;
57395;SDS011;43222;52.912;6.940;2023-08-30T12:21:54;14.73;;;13.13;;
57395;SDS011;43222;52.912;6.940;2023-08-30T12:24:20;14.18;;;12.60;;
57395;SDS011;43222;52.912;6.940;2023-08-30T12:26:48;16.15;;;13.27;;
57395;SDS011;43222;52.912;6.940;2023-08-30T12:29:14;15.23;;;13.55;;
57395;SDS011;43222;52.912;6.940;2023-08-30T12:31:40;14.93;;;13.38;;
57395;SDS011;43222;52.912;6.940;2023-08-30T12:34:07;16.10;;;13.38;;
57395;SDS011;43222;52.912;6.940;2023-08-30T12:36:33;14.02;;;12.52;;
57395;SDS011;43222;52.912;6.940;2023-08-30T12:38:59;14.77;;;12.45;;
57395;SDS011;43222;52.912;6.940;2023-08-30T12:41:25;13.57;;;12.15;;
57395;SDS011;43222;52.912;6.940;2023-08-30T12:43:51;14.13;;;12.50;;
57395;SDS011;43222;52.912;6.940;2023-08-30T12:46:17;13.63;;;11.75;;
57395;SDS011;43222;52.912;6.940;2023-08-30T12:48:43;12.93;;;11.55;;
57395;SDS011;43222;52.912;6.940;2023-08-30T12:51:09;13.25;;;11.95;;
57395;SDS011;43222;52.912;6.940;2023-08-30T12:53:35;13.35;;;11.65;;
57395;SDS011;43222;52.912;6.940;2023-08-30T12:56:01;12.10;;;10.77;;
57395;SDS011;43222;52.912;6.940;2023-08-30T12:58:29;14.40;;;12.90;;
57395;SDS011;43222;52.912;6.940;2023-08-30T13:00:55;14.18;;;12.77;;
57395;SDS011;43222;52.912;6.940;2023-08-30T13:03:21;14.82;;;13.32;;
57395;SDS011;43222;52.912;6.940;2023-08-30T13:05:48;14.23;;;12.73;;
57395;SDS011;43222;52.912;6.940;2023-08-30T13:08:14;13.00;;;11.70;;
57395;SDS011;43222;52.912;6.940;2023-08-30T13:10:40;14.07;;;12.52;;
57395;SDS011;43222;52.912;6.940;2023-08-30T13:13:06;15.40;;;13.15;;
57395;SDS011;43222;52.912;6.940;2023-08-30T13:15:32;12.65;;;11.35;;
57395;SDS011;43222;52.912;6.940;2023-08-30T13:18:00;13.13;;;11.82;;
57395;SDS011;43222;52.912;6.940;2023-08-30T13:20:26;12.50;;;11.20;;
57395;SDS011;43222;52.912;6.940;2023-08-30T13:22:52;12.63;;;10.77;;
57395;SDS011;43222;52.912;6.940;2023-08-30T13:25:18;12.13;;;10.82;;
57395;SDS011;43222;52.912;6.940;2023-08-30T13:27:44;11.55;;;10.35;;
57395;SDS011;43222;52.912;6.940;2023-08-30T13:30:10;11.75;;;10.50;;
57395;SDS011;43222;52.912;6.940;2023-08-30T13:32:37;10.82;;;9.68;;
57395;SDS011;43222;52.912;6.940;2023-08-30T13:35:03;8.88;;;7.82;;
57395;SDS011;43222;52.912;6.940;2023-08-30T13:37:29;9.27;;;8.07;;
57395;SDS011;43222;52.912;6.940;2023-08-30T13:39:55;9.80;;;7.90;;
57395;SDS011;43222;52.912;6.940;2023-08-30T13:42:21;9.27;;;8.30;;
57395;SDS011;43222;52.912;6.940;2023-08-30T13:44:50;8.85;;;7.78;;
57395;SDS011;43222;52.912;6.940;2023-08-30T13:47:16;10.32;;;7.43;;
57395;SDS011;43222;52.912;6.940;2023-08-30T13:49:42;7.97;;;6.68;;
57395;SDS011;43222;52.912;6.940;2023-08-30T13:52:08;8.57;;;6.57;;
57395;SDS011;43222;52.912;6.940;2023-08-30T13:54:34;7.53;;;5.72;;
57395;SDS011;43222;52.912;6.940;2023-08-30T13:57:00;6.78;;;4.88;;
57395;SDS011;43222;52.912;6.940;2023-08-30T13:59:27;6.53;;;5.03;;
57395;SDS011;43222;52.912;6.940;2023-08-30T14:01:53;5.90;;;4.75;;
57395;SDS011;43222;52.912;6.940;2023-08-30T14:04:19;6.25;;;4.63;;
57395;SDS011;43222;52.912;6.940;2023-08-30T14:06:45;7.55;;;4.95;;
57395;SDS011;43222;52.912;6.940;2023-08-30T14:09:12;7.00;;;5.03;;
57395;SDS011;43222;52.912;6.940;2023-08-30T14:11:38;6.20;;;4.68;;
57395;SDS011;43222;52.912;6.940;2023-08-30T14:14:06;6.40;;;5.03;;
57395;SDS011;43222;52.912;6.940;2023-08-30T14:16:32;6.22;;;4.70;;
57395;SDS011;43222;52.912;6.940;2023-08-30T14:18:58;6.25;;;4.90;;
57395;SDS011;43222;52.912;6.940;2023-08-30T14:21:25;6.45;;;4.68;;
57395;SDS011;43222;52.912;6.940;2023-08-30T14:23:52;6.13;;;4.78;;
57395;SDS011;43222;52.912;6.940;2023-08-30T14:26:18;6.65;;;4.93;;
57395;SDS011;43222;52.912;6.940;2023-08-30T14:28:44;7.57;;;4.90;;